createdAt,value
2023-06-30T00:01:33.657Z,100921.25
2023-06-30T00:04:55.737Z,100922.50
2023-06-30T00:08:17.760Z,100920.81
2023-06-30T00:11:41.150Z,100915.81
2023-06-30T00:15:03.550Z,100915.16
2023-06-30T00:18:27.000Z,100915.31
2023-06-30T00:21:49.344Z,100912.81
2023-06-30T00:25:13.596Z,100914.03
2023-06-30T00:28:38.080Z,100910.31
2023-06-30T00:31:59.782Z,100902.38
2023-06-30T00:35:24.050Z,100910.84
2023-06-30T00:38:46.748Z,100902.97
2023-06-30T00:42:10.529Z,100895.66
2023-06-30T00:45:32.377Z,100893.16
2023-06-30T00:48:54.177Z,100884.41
2023-06-30T00:52:17.085Z,100896.06
2023-06-30T00:55:38.542Z,100896.06
2023-06-30T00:59:01.398Z,100898.38
2023-06-30T01:02:30.040Z,100901.94
2023-06-30T01:06:00.312Z,100900.69
2023-06-30T01:09:26.042Z,100889.88
2023-06-30T01:12:48.837Z,100882.16
2023-06-30T01:16:11.919Z,100886.53
2023-06-30T01:19:37.803Z,100884.84
2023-06-30T01:23:06.998Z,100891.28
2023-06-30T01:26:31.966Z,100888.97
2023-06-30T01:29:56.003Z,100890.66
2023-06-30T01:33:17.869Z,100891.88
2023-06-30T01:36:39.599Z,100892.69
2023-06-30T01:40:04.012Z,100886.91
2023-06-30T01:43:28.282Z,100889.44
2023-06-30T01:46:50.064Z,100879.91
2023-06-30T01:50:12.751Z,100874.94
2023-06-30T01:53:34.190Z,100875.81
2023-06-30T01:56:55.787Z,100880.00
2023-06-30T02:00:19.230Z,100880.81
2023-06-30T02:03:42.724Z,100888.75
2023-06-30T02:07:05.180Z,100889.97
2023-06-30T02:10:27.319Z,100891.16
2023-06-30T02:13:50.316Z,100894.09
2023-06-30T02:17:16.059Z,100890.72
2023-06-30T02:20:40.029Z,100882.78
2023-06-30T02:24:01.464Z,100888.97
2023-06-30T02:27:23.262Z,100887.84
2023-06-30T02:30:45.387Z,100885.69
2023-06-30T02:34:08.323Z,100878.81
2023-06-30T02:37:30.557Z,100878.34
2023-06-30T02:40:52.295Z,100875.00
2023-06-30T02:44:14.408Z,100872.47
2023-06-30T02:47:36.424Z,100872.69
2023-06-30T02:51:00.159Z,100868.47
2023-06-30T02:54:22.049Z,100881.16
2023-06-30T02:57:44.073Z,100882.00
2023-06-30T03:01:07.217Z,100879.66
2023-06-30T03:04:31.155Z,100882.53
2023-06-30T03:07:55.181Z,100881.91
2023-06-30T03:11:17.014Z,100871.09
2023-06-30T03:14:38.926Z,100867.09
2023-06-30T03:18:00.385Z,100863.94
2023-06-30T03:21:22.408Z,100870.19
2023-06-30T03:24:46.289Z,100875.31
2023-06-30T03:28:08.533Z,100868.59
2023-06-30T03:31:30.495Z,100876.72
2023-06-30T03:34:52.407Z,100877.09
2023-06-30T03:38:13.982Z,100880.16
2023-06-30T03:41:37.296Z,100871.41
2023-06-30T03:44:59.875Z,100864.97
2023-06-30T03:48:22.713Z,100860.13
2023-06-30T03:51:44.456Z,100858.44
2023-06-30T03:55:07.488Z,100863.03
2023-06-30T03:58:32.372Z,100853.25
2023-06-30T04:01:54.575Z,100859.47
2023-06-30T04:05:16.120Z,100854.06
2023-06-30T04:08:37.883Z,100846.81
2023-06-30T04:11:59.332Z,100858.81
2023-06-30T04:15:22.417Z,100862.34
2023-06-30T04:18:43.973Z,100858.19
2023-06-30T04:22:06.016Z,100859.00
2023-06-30T04:25:27.634Z,100857.16
2023-06-30T04:28:49.602Z,100852.78
2023-06-30T04:32:12.999Z,100844.47
2023-06-30T04:35:34.856Z,100852.56
2023-06-30T04:38:57.169Z,100855.97
2023-06-30T04:42:19.387Z,100859.47
2023-06-30T04:45:41.412Z,100846.63
2023-06-30T04:49:05.683Z,100847.47
2023-06-30T04:52:27.440Z,100840.66
2023-06-30T04:55:50.560Z,100840.94
2023-06-30T04:59:12.350Z,100833.13
2023-06-30T05:02:33.925Z,100824.47
2023-06-30T05:05:57.814Z,100813.06
2023-06-30T05:09:19.624Z,100817.06
2023-06-30T05:12:41.205Z,100824.13
2023-06-30T05:16:03.055Z,100830.84
2023-06-30T05:19:24.962Z,100831.69
2023-06-30T05:23:18.755Z,100839.69
2023-06-30T05:26:43.768Z,100826.16
2023-06-30T05:30:06.224Z,100817.28
2023-06-30T05:33:27.517Z,100826.03
2023-06-30T05:36:49.317Z,100814.03
2023-06-30T05:40:14.299Z,100808.25
2023-06-30T05:43:35.888Z,100805.19
2023-06-30T05:46:57.833Z,100800.41
2023-06-30T05:50:19.792Z,100801.31
2023-06-30T05:53:44.777Z,100810.75
2023-06-30T05:57:10.546Z,100809.97
2023-06-30T06:00:34.936Z,100800.22
2023-06-30T06:03:56.907Z,100815.03
2023-06-30T06:07:19.499Z,100811.75
2023-06-30T06:10:41.143Z,100812.00
2023-06-30T06:14:04.694Z,100818.69
2023-06-30T06:17:26.298Z,100808.78
2023-06-30T06:20:48.277Z,100814.25
2023-06-30T06:24:10.162Z,100815.72
2023-06-30T06:27:35.684Z,100815.97
2023-06-30T06:30:58.928Z,100815.19
2023-06-30T06:34:21.036Z,100823.56
2023-06-30T06:37:43.139Z,100827.34
2023-06-30T06:41:04.996Z,100822.22
2023-06-30T06:44:26.876Z,100836.84
2023-06-30T06:48:23.216Z,100824.19
2023-06-30T06:51:44.911Z,100825.91
2023-06-30T06:55:07.340Z,100830.69
2023-06-30T06:58:32.237Z,100828.00
2023-06-30T07:01:53.683Z,100833.81
2023-06-30T07:05:16.968Z,100830.06
2023-06-30T07:08:40.283Z,100839.03
2023-06-30T07:12:02.267Z,100830.69
2023-06-30T07:15:25.179Z,100841.34
2023-06-30T07:18:46.676Z,100848.03
2023-06-30T07:22:09.782Z,100835.31
2023-06-30T07:25:31.441Z,100848.06
2023-06-30T07:28:52.933Z,100836.22
2023-06-30T07:32:16.515Z,100841.88
2023-06-30T07:35:37.928Z,100851.66
2023-06-30T07:39:01.306Z,100845.00
2023-06-30T07:42:23.253Z,100838.34
2023-06-30T07:45:45.248Z,100854.38
2023-06-30T07:49:07.514Z,100839.22
2023-06-30T07:52:29.260Z,100843.66
2023-06-30T07:55:52.121Z,100834.88
2023-06-30T07:59:14.022Z,100825.72
2023-06-30T08:02:36.048Z,100827.66
2023-06-30T08:05:59.446Z,100835.75
2023-06-30T08:09:21.669Z,100834.88
2023-06-30T08:12:45.002Z,100833.84
2023-06-30T08:16:06.727Z,100829.47
2023-06-30T08:19:45.738Z,100835.09
2023-06-30T08:23:14.310Z,100832.41
2023-06-30T08:26:36.036Z,100838.84
2023-06-30T08:29:59.140Z,100836.34
2023-06-30T08:33:35.117Z,100845.50
2023-06-30T08:37:01.838Z,100852.19
2023-06-30T08:40:28.014Z,100851.13
2023-06-30T08:43:50.685Z,100841.13
2023-06-30T08:47:16.781Z,100832.59
2023-06-30T08:50:39.766Z,100835.94
2023-06-30T08:54:01.659Z,100831.75
2023-06-30T08:57:26.218Z,100823.81
2023-06-30T09:00:47.704Z,100823.63
2023-06-30T09:04:12.169Z,100833.84
2023-06-30T09:07:41.899Z,100831.72
2023-06-30T09:11:08.417Z,100833.63
2023-06-30T09:14:34.674Z,100836.16
2023-06-30T09:17:58.511Z,100830.13
2023-06-30T09:21:24.264Z,100829.56
2023-06-30T09:24:49.843Z,100832.91
2023-06-30T09:28:14.838Z,100832.31
2023-06-30T09:31:36.823Z,100840.91
2023-06-30T09:34:58.440Z,100841.72
2023-06-30T09:38:22.366Z,100836.09
2023-06-30T09:41:45.332Z,100840.91
2023-06-30T09:45:08.415Z,100831.75
2023-06-30T09:48:32.339Z,100824.66
2023-06-30T09:51:56.837Z,100818.00
2023-06-30T09:55:20.271Z,100818.84
2023-06-30T09:58:44.158Z,100813.81
2023-06-30T10:02:05.913Z,100815.50
2023-06-30T10:05:27.740Z,100814.44
2023-06-30T10:08:51.505Z,100814.25
2023-06-30T10:12:16.989Z,100811.56
2023-06-30T10:15:39.476Z,100807.41
2023-06-30T10:19:04.314Z,100799.25
2023-06-30T10:22:26.336Z,100806.34
2023-06-30T10:25:49.499Z,100814.50
2023-06-30T10:29:13.056Z,100808.00
2023-06-30T10:32:35.142Z,100810.09
2023-06-30T10:35:58.933Z,100812.75
2023-06-30T10:39:26.419Z,100810.97
2023-06-30T10:42:49.796Z,100807.78
2023-06-30T10:46:13.357Z,100814.66
2023-06-30T10:49:36.284Z,100817.09
2023-06-30T10:52:57.935Z,100820.59
2023-06-30T10:56:24.539Z,100829.56
2023-06-30T10:59:48.388Z,100826.38
2023-06-30T11:03:11.172Z,100831.56
2023-06-30T11:06:33.064Z,100830.41
2023-06-30T11:10:04.454Z,100828.72
2023-06-30T11:13:38.687Z,100826.13
2023-06-30T11:17:06.728Z,100833.59
2023-06-30T11:20:31.239Z,100831.03
2023-06-30T11:23:52.861Z,100822.66
2023-06-30T11:27:15.346Z,100828.22
2023-06-30T11:30:39.900Z,100817.59
2023-06-30T11:34:02.373Z,100824.88
2023-06-30T11:37:27.784Z,100822.19
2023-06-30T11:40:51.250Z,100830.28
2023-06-30T11:44:14.482Z,100829.44
2023-06-30T11:47:37.109Z,100828.63
2023-06-30T11:50:59.754Z,100825.28
2023-06-30T11:54:31.314Z,100826.94
2023-06-30T11:57:52.826Z,100828.38
2023-06-30T12:01:14.548Z,100829.59
2023-06-30T12:04:37.689Z,100831.44
2023-06-30T12:07:59.907Z,100827.84
2023-06-30T12:11:24.622Z,100828.22
2023-06-30T12:14:47.315Z,100815.09
2023-06-30T12:18:09.016Z,100823.59
2023-06-30T12:21:30.825Z,100828.38
2023-06-30T12:24:56.431Z,100836.03
2023-06-30T12:28:19.855Z,100829.31
2023-06-30T12:31:42.696Z,100829.72
2023-06-30T12:35:07.747Z,100834.47
2023-06-30T12:38:29.484Z,100827.59
2023-06-30T12:41:51.657Z,100825.94
2023-06-30T12:45:14.993Z,100825.09
2023-06-30T12:48:36.954Z,100823.41
2023-06-30T12:52:00.472Z,100819.84
2023-06-30T12:55:24.909Z,100814.25
2023-06-30T12:58:47.216Z,100825.34
2023-06-30T13:02:11.167Z,100844.00
2023-06-30T13:05:33.365Z,100846.88
2023-06-30T13:08:55.434Z,100839.63
2023-06-30T13:12:25.637Z,100828.81
2023-06-30T13:15:48.604Z,100823.59
2023-06-30T13:19:14.129Z,100827.31
2023-06-30T13:22:38.033Z,100834.22
2023-06-30T13:26:04.371Z,100835.06
2023-06-30T13:29:26.748Z,100822.38
2023-06-30T13:32:48.871Z,100827.59
2023-06-30T13:36:13.972Z,100825.66
2023-06-30T13:39:37.860Z,100817.53
2023-06-30T13:43:00.014Z,100822.94
2023-06-30T13:46:24.521Z,100807.38
2023-06-30T13:49:46.365Z,100815.94
2023-06-30T13:53:09.534Z,100831.81
2023-06-30T13:56:31.710Z,100838.34
2023-06-30T13:59:53.804Z,100827.66
2023-06-30T14:03:17.141Z,100830.28
2023-06-30T14:06:39.468Z,100837.00
2023-06-30T14:10:02.991Z,100840.56
2023-06-30T14:13:25.388Z,100833.66
2023-06-30T14:16:50.665Z,100835.63
2023-06-30T14:20:14.805Z,100840.94
2023-06-30T14:23:36.690Z,100833.00
2023-06-30T14:26:59.655Z,100839.66
2023-06-30T14:30:21.716Z,100825.50
2023-06-30T14:33:43.456Z,100830.63
2023-06-30T14:37:05.653Z,100845.69
2023-06-30T14:40:31.093Z,100828.38
2023-06-30T14:43:54.607Z,100829.31
2023-06-30T14:47:16.827Z,100832.03
2023-06-30T14:50:38.530Z,100829.78
2023-06-30T14:54:00.563Z,100838.72
2023-06-30T14:57:22.520Z,100834.41
2023-06-30T15:00:45.565Z,100839.44
2023-06-30T15:04:07.971Z,100849.97
2023-06-30T15:07:29.617Z,100842.44
2023-06-30T15:10:51.626Z,100833.22
2023-06-30T15:14:13.126Z,100824.47
2023-06-30T15:17:35.780Z,100834.25
2023-06-30T15:20:57.725Z,100834.03
2023-06-30T15:24:19.858Z,100832.09
2023-06-30T15:27:41.482Z,100844.94
2023-06-30T15:31:03.360Z,100833.47
2023-06-30T15:34:27.069Z,100844.28
2023-06-30T15:37:49.033Z,100843.09
2023-06-30T15:41:22.286Z,100833.31
2023-06-30T15:44:44.745Z,100840.00
2023-06-30T15:48:07.114Z,100856.66
2023-06-30T15:51:30.387Z,100843.84
2023-06-30T15:55:08.937Z,100841.97
2023-06-30T15:58:30.655Z,100829.97
2023-06-30T16:01:52.541Z,100840.78
2023-06-30T16:05:14.288Z,100830.41
2023-06-30T16:08:37.542Z,100823.81
2023-06-30T16:11:59.911Z,100820.09
2023-06-30T16:15:21.850Z,100819.91
2023-06-30T16:18:43.774Z,100804.16
2023-06-30T16:22:05.870Z,100814.41
2023-06-30T16:25:29.008Z,100812.38
2023-06-30T16:28:50.799Z,100809.66
2023-06-30T16:32:12.695Z,100818.03
2023-06-30T16:35:35.643Z,100812.44
2023-06-30T16:38:57.206Z,100810.22
2023-06-30T16:42:20.635Z,100807.94
2023-06-30T16:45:42.746Z,100806.97
2023-06-30T16:49:04.664Z,100802.56
2023-06-30T16:52:26.610Z,100794.09
2023-06-30T16:55:48.739Z,100798.25
2023-06-30T16:59:12.079Z,100788.75
2023-06-30T17:02:34.392Z,100782.97
2023-06-30T17:05:56.031Z,100773.00
2023-06-30T17:09:20.433Z,100789.66
2023-06-30T17:12:43.468Z,100781.94
2023-06-30T17:16:06.758Z,100782.16
2023-06-30T17:19:28.708Z,100799.19
2023-06-30T17:22:50.121Z,100796.03
2023-06-30T17:26:12.144Z,100789.97
2023-06-30T17:29:33.922Z,100786.16
2023-06-30T17:32:56.881Z,100789.25
2023-06-30T17:36:19.599Z,100786.06
2023-06-30T17:39:41.181Z,100790.19
2023-06-30T17:43:02.692Z,100787.22
2023-06-30T17:46:24.395Z,100784.34
2023-06-30T17:49:48.331Z,100779.59
2023-06-30T17:53:11.105Z,100793.34
2023-06-30T17:56:32.922Z,100784.41
2023-06-30T17:59:54.573Z,100790.66
2023-06-30T18:03:17.087Z,100790.28
2023-06-30T18:07:02.504Z,100790.28
2023-06-30T18:10:24.374Z,100789.41
2023-06-30T18:13:47.533Z,100787.97
2023-06-30T18:17:08.946Z,100789.63
2023-06-30T18:20:30.858Z,100792.34
2023-06-30T18:23:53.552Z,100798.75
2023-06-30T18:27:15.274Z,100792.72
2023-06-30T18:30:37.083Z,100789.75
2023-06-30T18:33:58.441Z,100789.75
2023-06-30T18:37:20.385Z,100795.53
2023-06-30T18:40:43.427Z,100787.59
2023-06-30T18:44:05.617Z,100786.69
2023-06-30T18:47:27.230Z,100794.31
2023-06-30T18:50:48.958Z,100788.25
2023-06-30T18:54:10.684Z,100799.44
2023-06-30T18:57:34.591Z,100799.44
2023-06-30T19:00:56.342Z,100793.19
2023-06-30T19:04:18.174Z,100801.09
2023-06-30T19:07:39.913Z,100808.56
2023-06-30T19:11:01.672Z,100811.63
2023-06-30T19:14:25.773Z,100803.53
2023-06-30T19:17:47.397Z,100818.88
2023-06-30T19:21:10.207Z,100816.75
2023-06-30T19:24:33.001Z,100813.41
2023-06-30T19:27:54.625Z,100816.25
2023-06-30T19:31:18.129Z,100824.19
2023-06-30T19:34:39.678Z,100817.13
2023-06-30T19:38:01.093Z,100822.88
2023-06-30T19:41:24.644Z,100831.34
2023-06-30T19:44:47.425Z,100828.16
2023-06-30T19:48:10.579Z,100818.25
2023-06-30T19:51:31.959Z,100818.84
2023-06-30T19:54:53.663Z,100821.41
2023-06-30T19:58:15.556Z,100815.75
2023-06-30T20:01:37.597Z,100823.53
2023-06-30T20:05:02.579Z,100813.50
2023-06-30T20:08:24.362Z,100812.34
2023-06-30T20:11:46.046Z,100821.34
2023-06-30T20:15:09.688Z,100817.53
2023-06-30T20:18:31.487Z,100816.38
2023-06-30T20:21:54.572Z,100817.56
2023-06-30T20:25:16.166Z,100811.72
2023-06-30T20:28:39.656Z,100810.03
2023-06-30T20:32:01.650Z,100803.50
2023-06-30T20:35:23.405Z,100809.25
2023-06-30T20:38:46.766Z,100809.44
2023-06-30T20:42:09.096Z,100816.19
2023-06-30T20:45:31.779Z,100809.19
2023-06-30T20:48:54.035Z,100798.09
2023-06-30T20:52:15.551Z,100802.50
2023-06-30T20:55:38.667Z,100805.72
2023-06-30T20:59:00.429Z,100800.03
2023-06-30T21:02:22.012Z,100804.47
2023-06-30T21:05:43.311Z,100796.91
2023-06-30T21:09:06.288Z,100795.09
2023-06-30T21:12:29.042Z,100795.97
2023-06-30T21:15:50.497Z,100796.69
2023-06-30T21:19:12.976Z,100804.78
2023-06-30T21:22:34.525Z,100797.75
2023-06-30T21:25:56.543Z,100794.75
2023-06-30T21:29:19.769Z,100803.53
2023-06-30T21:32:41.839Z,100797.63
2023-06-30T21:36:03.605Z,100797.50
2023-06-30T21:39:25.044Z,100800.53
2023-06-30T21:42:46.973Z,100801.88
2023-06-30T21:46:15.227Z,100805.56
2023-06-30T21:49:37.799Z,100800.03
2023-06-30T21:52:59.297Z,100796.00
2023-06-30T21:56:21.632Z,100794.84
2023-06-30T21:59:43.079Z,100797.53
2023-06-30T22:03:07.274Z,100800.56
2023-06-30T22:06:29.346Z,100796.19
2023-06-30T22:09:51.285Z,100799.03
2023-06-30T22:13:13.152Z,100794.50
2023-06-30T22:16:34.481Z,100791.16
2023-06-30T22:19:57.713Z,100791.16
2023-06-30T22:23:19.218Z,100786.13
2023-06-30T22:26:41.099Z,100780.75
2023-06-30T22:30:02.986Z,100789.16
2023-06-30T22:33:24.584Z,100778.56
2023-06-30T22:36:47.613Z,100773.03
2023-06-30T22:40:10.758Z,100773.19
2023-06-30T22:43:32.274Z,100777.03
2023-06-30T22:46:53.544Z,100771.84
2023-06-30T22:50:15.760Z,100763.94
2023-06-30T22:53:38.518Z,100764.47
2023-06-30T22:57:00.275Z,100757.56
2023-06-30T23:00:22.768Z,100757.91
2023-06-30T23:03:44.404Z,100753.72
2023-06-30T23:07:06.325Z,100756.41
2023-06-30T23:10:29.105Z,100750.34
2023-06-30T23:13:50.911Z,100750.19
2023-06-30T23:17:16.070Z,100753.72
2023-06-30T23:20:37.438Z,100760.25
2023-06-30T23:23:59.322Z,100759.25
2023-06-30T23:27:24.506Z,100760.25
2023-06-30T23:30:46.159Z,100756.25
2023-06-30T23:34:08.027Z,100750.19
2023-06-30T23:37:29.898Z,100752.22
2023-06-30T23:40:51.203Z,100746.50
2023-06-30T23:44:14.777Z,100749.19
2023-06-30T23:47:36.359Z,100746.84
2023-06-30T23:50:58.225Z,100739.97
2023-06-30T23:54:19.898Z,100736.41
2023-06-30T23:57:41.803Z,100734.06
